sensor_id;sensor_type;location;lat;lon;timestamp;temperature;humidity
70166;SHT30;57541;47.408;18.822;2023-11-18T00:00:09;4.44;92.84
70166;SHT30;57541;47.408;18.822;2023-11-18T00:00:44;4.36;92.81
70166;SHT30;57541;47.408;18.822;2023-11-18T00:01:15;4.36;92.97
70166;SHT30;57541;47.408;18.822;2023-11-18T00:01:47;4.37;92.77
70166;SHT30;57541;47.408;18.822;2023-11-18T00:02:19;4.34;92.83
70166;SHT30;57541;47.408;18.822;2023-11-18T00:02:51;4.34;92.72
70166;SHT30;57541;47.408;18.822;2023-11-18T00:03:23;4.34;92.87
70166;SHT30;57541;47.408;18.822;2023-11-18T00:03:55;4.37;92.81
70166;SHT30;57541;47.408;18.822;2023-11-18T00:04:26;4.36;92.81
70166;SHT30;57541;47.408;18.822;2023-11-18T00:04:58;4.37;93.05
70166;SHT30;57541;47.408;18.822;2023-11-18T00:05:30;4.37;93.08
70166;SHT30;57541;47.408;18.822;2023-11-18T00:06:02;4.32;92.94
70166;SHT30;57541;47.408;18.822;2023-11-18T00:06:34;4.36;93.15
70166;SHT30;57541;47.408;18.822;2023-11-18T00:07:06;4.32;93.10
70166;SHT30;57541;47.408;18.822;2023-11-18T00:07:38;4.34;92.95
70166;SHT30;57541;47.408;18.822;2023-11-18T00:08:10;4.32;92.93
70166;SHT30;57541;47.408;18.822;2023-11-18T00:08:42;4.33;93.01
70166;SHT30;57541;47.408;18.822;2023-11-18T00:09:14;4.32;92.93
70166;SHT30;57541;47.408;18.822;2023-11-18T00:09:46;4.32;93.00
70166;SHT30;57541;47.408;18.822;2023-11-18T00:10:18;4.34;92.99
70166;SHT30;57541;47.408;18.822;2023-11-18T00:10:49;4.32;92.91
70166;SHT30;57541;47.408;18.822;2023-11-18T00:11:21;4.30;93.03
70166;SHT30;57541;47.408;18.822;2023-11-18T00:11:53;4.30;93.05
70166;SHT30;57541;47.408;18.822;2023-11-18T00:12:25;4.26;93.17
70166;SHT30;57541;47.408;18.822;2023-11-18T00:12:57;4.26;93.23
70166;SHT30;57541;47.408;18.822;2023-11-18T00:13:28;4.26;93.18
70166;SHT30;57541;47.408;18.822;2023-11-18T00:14:00;4.28;93.01
70166;SHT30;57541;47.408;18.822;2023-11-18T00:14:32;4.32;92.92
70166;SHT30;57541;47.408;18.822;2023-11-18T00:15:04;4.29;92.93
70166;SHT30;57541;47.408;18.822;2023-11-18T00:15:36;4.21;93.22
70166;SHT30;57541;47.408;18.822;2023-11-18T00:16:09;4.23;93.27
70166;SHT30;57541;47.408;18.822;2023-11-18T00:16:50;4.24;93.18
70166;SHT30;57541;47.408;18.822;2023-11-18T00:17:22;4.26;93.15
70166;SHT30;57541;47.408;18.822;2023-11-18T00:17:54;4.28;93.29
70166;SHT30;57541;47.408;18.822;2023-11-18T00:18:25;4.29;93.04
70166;SHT30;57541;47.408;18.822;2023-11-18T00:18:57;4.29;92.76
70166;SHT30;57541;47.408;18.822;2023-11-18T00:19:33;4.23;93.13
70166;SHT30;57541;47.408;18.822;2023-11-18T00:20:08;4.26;93.10
70166;SHT30;57541;47.408;18.822;2023-11-18T00:20:41;4.28;93.10
70166;SHT30;57541;47.408;18.822;2023-11-18T00:21:14;4.29;93.21
70166;SHT30;57541;47.408;18.822;2023-11-18T00:21:46;4.26;93.31
70166;SHT30;57541;47.408;18.822;2023-11-18T00:22:17;4.21;93.24
70166;SHT30;57541;47.408;18.822;2023-11-18T00:22:49;4.26;93.16
70166;SHT30;57541;47.408;18.822;2023-11-18T00:23:22;4.28;93.19
70166;SHT30;57541;47.408;18.822;2023-11-18T00:23:54;4.26;93.30
70166;SHT30;57541;47.408;18.822;2023-11-18T00:24:27;4.24;93.29
70166;SHT30;57541;47.408;18.822;2023-11-18T00:24:59;4.23;93.46
70166;SHT30;57541;47.408;18.822;2023-11-18T00:25:31;4.28;92.99
70166;SHT30;57541;47.408;18.822;2023-11-18T00:26:03;4.29;93.06
70166;SHT30;57541;47.408;18.822;2023-11-18T00:26:36;4.24;93.13
70166;SHT30;57541;47.408;18.822;2023-11-18T00:27:08;4.23;93.28
70166;SHT30;57541;47.408;18.822;2023-11-18T00:27:40;4.17;93.41
70166;SHT30;57541;47.408;18.822;2023-11-18T00:28:12;4.23;93.30
70166;SHT30;57541;47.408;18.822;2023-11-18T00:28:43;4.23;93.42
70166;SHT30;57541;47.408;18.822;2023-11-18T00:29:15;4.24;93.42
70166;SHT30;57541;47.408;18.822;2023-11-18T00:29:47;4.20;93.36
70166;SHT30;57541;47.408;18.822;2023-11-18T00:30:19;4.17;93.55
70166;SHT30;57541;47.408;18.822;2023-11-18T00:30:50;4.16;93.65
70166;SHT30;57541;47.408;18.822;2023-11-18T00:31:22;4.20;93.60
70166;SHT30;57541;47.408;18.822;2023-11-18T00:31:54;4.20;93.48
70166;SHT30;57541;47.408;18.822;2023-11-18T00:32:26;4.19;93.44
70166;SHT30;57541;47.408;18.822;2023-11-18T00:32:58;4.20;93.29
70166;SHT30;57541;47.408;18.822;2023-11-18T00:33:30;4.19;93.34
70166;SHT30;57541;47.408;18.822;2023-11-18T00:34:02;4.19;93.51
70166;SHT30;57541;47.408;18.822;2023-11-18T00:34:33;4.23;93.45
70166;SHT30;57541;47.408;18.822;2023-11-18T00:35:06;4.23;93.21
70166;SHT30;57541;47.408;18.822;2023-11-18T00:35:37;4.21;93.29
70166;SHT30;57541;47.408;18.822;2023-11-18T00:36:09;4.14;93.57
70166;SHT30;57541;47.408;18.822;2023-11-18T00:36:41;4.16;93.52
70166;SHT30;57541;47.408;18.822;2023-11-18T00:37:13;4.20;93.44
70166;SHT30;57541;47.408;18.822;2023-11-18T00:37:44;4.19;93.45
70166;SHT30;57541;47.408;18.822;2023-11-18T00:38:16;4.21;93.45
70166;SHT30;57541;47.408;18.822;2023-11-18T00:38:49;4.20;93.60
70166;SHT30;57541;47.408;18.822;2023-11-18T00:39:20;4.20;93.36
70166;SHT30;57541;47.408;18.822;2023-11-18T00:39:52;4.20;93.20
70166;SHT30;57541;47.408;18.822;2023-11-18T00:40:25;4.16;93.28
70166;SHT30;57541;47.408;18.822;2023-11-18T00:40:57;4.16;93.31
70166;SHT30;57541;47.408;18.822;2023-11-18T00:41:29;4.19;93.32
70166;SHT30;57541;47.408;18.822;2023-11-18T00:42:01;4.14;93.51
70166;SHT30;57541;47.408;18.822;2023-11-18T00:42:33;4.20;93.46
70166;SHT30;57541;47.408;18.822;2023-11-18T00:43:04;4.21;93.04
70166;SHT30;57541;47.408;18.822;2023-11-18T00:43:36;4.20;93.15
70166;SHT30;57541;47.408;18.822;2023-11-18T00:44:08;4.17;93.00
70166;SHT30;57541;47.408;18.822;2023-11-18T00:44:40;4.19;92.95
70166;SHT30;57541;47.408;18.822;2023-11-18T00:45:12;4.20;92.85
70166;SHT30;57541;47.408;18.822;2023-11-18T00:45:44;4.24;92.94
70166;SHT30;57541;47.408;18.822;2023-11-18T00:46:16;4.20;92.90
70166;SHT30;57541;47.408;18.822;2023-11-18T00:46:49;4.16;92.86
70166;SHT30;57541;47.408;18.822;2023-11-18T00:47:21;4.14;93.23
70166;SHT30;57541;47.408;18.822;2023-11-18T00:47:55;4.17;93.11
70166;SHT30;57541;47.408;18.822;2023-11-18T00:48:26;4.19;93.00
70166;SHT30;57541;47.408;18.822;2023-11-18T00:48:59;4.19;93.07
70166;SHT30;57541;47.408;18.822;2023-11-18T00:49:31;4.17;92.88
70166;SHT30;57541;47.408;18.822;2023-11-18T00:50:03;4.17;92.74
70166;SHT30;57541;47.408;18.822;2023-11-18T00:50:35;4.19;92.90
70166;SHT30;57541;47.408;18.822;2023-11-18T00:51:07;4.20;92.88
70166;SHT30;57541;47.408;18.822;2023-11-18T00:51:39;4.23;92.83
70166;SHT30;57541;47.408;18.822;2023-11-18T00:52:12;4.14;92.88
70166;SHT30;57541;47.408;18.822;2023-11-18T00:52:44;4.13;93.00
70166;SHT30;57541;47.408;18.822;2023-11-18T00:53:19;4.19;92.99
70166;SHT30;57541;47.408;18.822;2023-11-18T00:53:51;4.19;93.06
70166;SHT30;57541;47.408;18.822;2023-11-18T00:54:25;4.17;93.17
70166;SHT30;57541;47.408;18.822;2023-11-18T00:54:58;4.19;93.11
70166;SHT30;57541;47.408;18.822;2023-11-18T00:55:30;4.20;93.27
70166;SHT30;57541;47.408;18.822;2023-11-18T00:56:03;4.24;93.17
70166;SHT30;57541;47.408;18.822;2023-11-18T00:56:39;4.17;92.99
70166;SHT30;57541;47.408;18.822;2023-11-18T00:57:11;4.17;92.93
70166;SHT30;57541;47.408;18.822;2023-11-18T00:57:44;4.07;93.06
70166;SHT30;57541;47.408;18.822;2023-11-18T00:58:16;4.10;93.10
70166;SHT30;57541;47.408;18.822;2023-11-18T00:58:48;4.10;93.28
70166;SHT30;57541;47.408;18.822;2023-11-18T00:59:20;4.13;93.28
70166;SHT30;57541;47.408;18.822;2023-11-18T00:59:52;4.16;93.05
70166;SHT30;57541;47.408;18.822;2023-11-18T01:00:23;4.13;93.19
70166;SHT30;57541;47.408;18.822;2023-11-18T01:00:58;4.10;92.80
70166;SHT30;57541;47.408;18.822;2023-11-18T01:01:30;4.05;92.90
70166;SHT30;57541;47.408;18.822;2023-11-18T01:02:03;4.05;93.10
70166;SHT30;57541;47.408;18.822;2023-11-18T01:02:36;4.05;93.27
70166;SHT30;57541;47.408;18.822;2023-11-18T01:03:10;4.06;93.31
70166;SHT30;57541;47.408;18.822;2023-11-18T01:03:42;4.05;93.42
70166;SHT30;57541;47.408;18.822;2023-11-18T01:04:14;4.10;93.36
70166;SHT30;57541;47.408;18.822;2023-11-18T01:04:45;4.12;93.27
70166;SHT30;57541;47.408;18.822;2023-11-18T01:05:17;4.07;93.16
70166;SHT30;57541;47.408;18.822;2023-11-18T01:05:49;4.02;93.18
70166;SHT30;57541;47.408;18.822;2023-11-18T01:06:21;4.05;93.09
70166;SHT30;57541;47.408;18.822;2023-11-18T01:06:53;4.06;93.05
70166;SHT30;57541;47.408;18.822;2023-11-18T01:07:25;4.06;92.93
70166;SHT30;57541;47.408;18.822;2023-11-18T01:07:57;4.09;93.00
70166;SHT30;57541;47.408;18.822;2023-11-18T01:08:29;4.09;92.98
70166;SHT30;57541;47.408;18.822;2023-11-18T01:09:00;4.09;93.25
70166;SHT30;57541;47.408;18.822;2023-11-18T01:09:32;4.12;93.28
70166;SHT30;57541;47.408;18.822;2023-11-18T01:10:11;4.12;92.88
70166;SHT30;57541;47.408;18.822;2023-11-18T01:10:42;4.07;92.76
70166;SHT30;57541;47.408;18.822;2023-11-18T01:11:17;4.14;92.61
70166;SHT30;57541;47.408;18.822;2023-11-18T01:11:53;4.09;92.71
70166;SHT30;57541;47.408;18.822;2023-11-18T01:12:40;4.05;92.82
70166;SHT30;57541;47.408;18.822;2023-11-18T01:13:11;4.12;93.02
70166;SHT30;57541;47.408;18.822;2023-11-18T01:13:43;4.13;92.86
70166;SHT30;57541;47.408;18.822;2023-11-18T01:14:15;4.06;92.78
70166;SHT30;57541;47.408;18.822;2023-11-18T01:14:48;4.09;93.07
70166;SHT30;57541;47.408;18.822;2023-11-18T01:15:20;4.06;93.07
70166;SHT30;57541;47.408;18.822;2023-11-18T01:15:52;4.00;93.12
70166;SHT30;57541;47.408;18.822;2023-11-18T01:16:23;4.06;92.99
70166;SHT30;57541;47.408;18.822;2023-11-18T01:16:55;4.05;92.81
70166;SHT30;57541;47.408;18.822;2023-11-18T01:17:27;4.03;92.76
70166;SHT30;57541;47.408;18.822;2023-11-18T01:17:59;4.02;92.89
70166;SHT30;57541;47.408;18.822;2023-11-18T01:18:31;4.02;92.80
70166;SHT30;57541;47.408;18.822;2023-11-18T01:19:03;4.02;92.76
70166;SHT30;57541;47.408;18.822;2023-11-18T01:19:35;3.99;92.85
70166;SHT30;57541;47.408;18.822;2023-11-18T01:20:07;4.00;93.07
70166;SHT30;57541;47.408;18.822;2023-11-18T01:20:41;4.02;93.05
70166;SHT30;57541;47.408;18.822;2023-11-18T01:21:15;3.99;93.41
70166;SHT30;57541;47.408;18.822;2023-11-18T01:21:49;4.00;93.27
70166;SHT30;57541;47.408;18.822;2023-11-18T01:22:21;4.02;93.08
70166;SHT30;57541;47.408;18.822;2023-11-18T01:22:53;4.03;92.80
70166;SHT30;57541;47.408;18.822;2023-11-18T01:23:24;4.02;92.97
70166;SHT30;57541;47.408;18.822;2023-11-18T01:23:57;3.96;92.93
70166;SHT30;57541;47.408;18.822;2023-11-18T01:24:29;4.02;92.88
70166;SHT30;57541;47.408;18.822;2023-11-18T01:25:01;4.00;92.73
70166;SHT30;57541;47.408;18.822;2023-11-18T01:25:33;4.05;92.74
70166;SHT30;57541;47.408;18.822;2023-11-18T01:26:06;4.00;92.79
70166;SHT30;57541;47.408;18.822;2023-11-18T01:26:37;4.02;92.74
70166;SHT30;57541;47.408;18.822;2023-11-18T01:27:09;4.02;92.80
70166;SHT30;57541;47.408;18.822;2023-11-18T01:27:42;3.98;93.34
70166;SHT30;57541;47.408;18.822;2023-11-18T01:28:14;4.03;93.11
70166;SHT30;57541;47.408;18.822;2023-11-18T01:28:47;3.99;93.10
70166;SHT30;57541;47.408;18.822;2023-11-18T01:29:18;4.00;93.11
70166;SHT30;57541;47.408;18.822;2023-11-18T01:29:50;4.00;92.83
70166;SHT30;57541;47.408;18.822;2023-11-18T01:30:22;4.03;92.74
70166;SHT30;57541;47.408;18.822;2023-11-18T01:30:55;4.00;92.86
70166;SHT30;57541;47.408;18.822;2023-11-18T01:31:27;4.02;92.66
70166;SHT30;57541;47.408;18.822;2023-11-18T01:32:10;4.03;92.59
70166;SHT30;57541;47.408;18.822;2023-11-18T01:32:43;4.06;92.46
70166;SHT30;57541;47.408;18.822;2023-11-18T01:33:15;4.07;92.37
70166;SHT30;57541;47.408;18.822;2023-11-18T01:33:47;4.12;92.27
70166;SHT30;57541;47.408;18.822;2023-11-18T01:34:21;4.13;92.26
70166;SHT30;57541;47.408;18.822;2023-11-18T01:34:53;4.10;92.23
70166;SHT30;57541;47.408;18.822;2023-11-18T01:35:25;4.10;92.27
70166;SHT30;57541;47.408;18.822;2023-11-18T01:35:58;4.07;92.60
70166;SHT30;57541;47.408;18.822;2023-11-18T01:36:30;4.05;92.70
70166;SHT30;57541;47.408;18.822;2023-11-18T01:37:02;4.06;92.51
70166;SHT30;57541;47.408;18.822;2023-11-18T01:37:33;4.02;92.52
70166;SHT30;57541;47.408;18.822;2023-11-18T01:38:05;3.99;92.60
70166;SHT30;57541;47.408;18.822;2023-11-18T01:38:38;4.02;92.77
70166;SHT30;57541;47.408;18.822;2023-11-18T01:39:10;3.99;92.64
70166;SHT30;57541;47.408;18.822;2023-11-18T01:39:44;4.00;92.49
70166;SHT30;57541;47.408;18.822;2023-11-18T01:40:16;4.02;92.52
70166;SHT30;57541;47.408;18.822;2023-11-18T01:40:48;4.03;92.50
70166;SHT30;57541;47.408;18.822;2023-11-18T01:41:20;4.00;92.50
70166;SHT30;57541;47.408;18.822;2023-11-18T01:41:52;4.02;92.49
70166;SHT30;57541;47.408;18.822;2023-11-18T01:42:23;4.02;92.33
70166;SHT30;57541;47.408;18.822;2023-11-18T01:42:55;4.00;92.40
70166;SHT30;57541;47.408;18.822;2023-11-18T01:43:27;4.00;92.47
70166;SHT30;57541;47.408;18.822;2023-11-18T01:43:58;4.00;92.70
70166;SHT30;57541;47.408;18.822;2023-11-18T01:44:31;3.98;92.68
70166;SHT30;57541;47.408;18.822;2023-11-18T01:45:05;3.98;92.59
70166;SHT30;57541;47.408;18.822;2023-11-18T01:45:43;3.99;92.64
70166;SHT30;57541;47.408;18.822;2023-11-18T01:46:16;3.96;92.65
70166;SHT30;57541;47.408;18.822;2023-11-18T01:46:48;3.92;92.89
70166;SHT30;57541;47.408;18.822;2023-11-18T01:47:20;3.92;92.91
70166;SHT30;57541;47.408;18.822;2023-11-18T01:47:52;3.91;92.94
70166;SHT30;57541;47.408;18.822;2023-11-18T01:48:25;3.89;92.88
70166;SHT30;57541;47.408;18.822;2023-11-18T01:48:58;3.91;93.07
70166;SHT30;57541;47.408;18.822;2023-11-18T01:49:30;3.92;92.85
70166;SHT30;57541;47.408;18.822;2023-11-18T01:50:02;3.91;92.92
70166;SHT30;57541;47.408;18.822;2023-11-18T01:50:38;3.88;93.07
70166;SHT30;57541;47.408;18.822;2023-11-18T01:51:12;3.92;92.84
70166;SHT30;57541;47.408;18.822;2023-11-18T01:51:44;3.93;92.70
70166;SHT30;57541;47.408;18.822;2023-11-18T01:52:17;3.95;92.67
70166;SHT30;57541;47.408;18.822;2023-11-18T01:52:49;3.92;92.95
70166;SHT30;57541;47.408;18.822;2023-11-18T01:53:20;3.89;93.01
70166;SHT30;57541;47.408;18.822;2023-11-18T01:53:52;3.89;93.04
70166;SHT30;57541;47.408;18.822;2023-11-18T01:54:24;3.93;93.02
70166;SHT30;57541;47.408;18.822;2023-11-18T01:54:56;3.93;92.96
70166;SHT30;57541;47.408;18.822;2023-11-18T01:55:28;3.92;93.07
70166;SHT30;57541;47.408;18.822;2023-11-18T01:56:00;3.96;93.03
70166;SHT30;57541;47.408;18.822;2023-11-18T01:56:32;3.93;93.05
70166;SHT30;57541;47.408;18.822;2023-11-18T01:57:04;3.99;92.79
70166;SHT30;57541;47.408;18.822;2023-11-18T01:57:37;3.96;93.08
70166;SHT30;57541;47.408;18.822;2023-11-18T01:58:11;3.95;93.16
70166;SHT30;57541;47.408;18.822;2023-11-18T01:58:45;3.95;92.94
70166;SHT30;57541;47.408;18.822;2023-11-18T01:59:18;3.96;93.04
70166;SHT30;57541;47.408;18.822;2023-11-18T01:59:50;3.96;92.89
70166;SHT30;57541;47.408;18.822;2023-11-18T02:00:23;4.02;92.78
70166;SHT30;57541;47.408;18.822;2023-11-18T02:00:55;3.99;92.81
70166;SHT30;57541;47.408;18.822;2023-11-18T02:01:27;3.96;92.79
70166;SHT30;57541;47.408;18.822;2023-11-18T02:02:01;3.98;92.85
70166;SHT30;57541;47.408;18.822;2023-11-18T02:02:35;3.95;93.30
70166;SHT30;57541;47.408;18.822;2023-11-18T02:03:07;3.93;93.22
70166;SHT30;57541;47.408;18.822;2023-11-18T02:03:41;3.96;93.12
70166;SHT30;57541;47.408;18.822;2023-11-18T02:04:14;3.99;92.97
70166;SHT30;57541;47.408;18.822;2023-11-18T02:04:47;3.95;93.08
70166;SHT30;57541;47.408;18.822;2023-11-18T02:05:19;3.98;93.19
70166;SHT30;57541;47.408;18.822;2023-11-18T02:05:51;3.98;93.21
70166;SHT30;57541;47.408;18.822;2023-11-18T02:06:23;3.96;93.18
70166;SHT30;57541;47.408;18.822;2023-11-18T02:06:55;3.95;93.15
70166;SHT30;57541;47.408;18.822;2023-11-18T02:07:28;3.98;92.98
70166;SHT30;57541;47.408;18.822;2023-11-18T02:08:03;3.98;93.18
70166;SHT30;57541;47.408;18.822;2023-11-18T02:08:36;3.95;93.37
70166;SHT30;57541;47.408;18.822;2023-11-18T02:09:08;3.98;93.23
70166;SHT30;57541;47.408;18.822;2023-11-18T02:09:41;4.00;93.08
70166;SHT30;57541;47.408;18.822;2023-11-18T02:10:13;3.99;92.99
70166;SHT30;57541;47.408;18.822;2023-11-18T02:10:55;4.02;93.04
70166;SHT30;57541;47.408;18.822;2023-11-18T02:11:36;4.05;93.02
70166;SHT30;57541;47.408;18.822;2023-11-18T02:12:30;4.02;93.11
70166;SHT30;57541;47.408;18.822;2023-11-18T02:13:23;4.00;93.11
70166;SHT30;57541;47.408;18.822;2023-11-18T02:14:00;3.93;93.47
70166;SHT30;57541;47.408;18.822;2023-11-18T02:14:34;3.99;93.34
70166;SHT30;57541;47.408;18.822;2023-11-18T02:15:10;4.02;93.21
70166;SHT30;57541;47.408;18.822;2023-11-18T02:15:44;4.02;93.15
70166;SHT30;57541;47.408;18.822;2023-11-18T02:16:17;4.03;93.06
70166;SHT30;57541;47.408;18.822;2023-11-18T02:16:52;4.02;93.10
70166;SHT30;57541;47.408;18.822;2023-11-18T02:17:28;4.02;93.12
70166;SHT30;57541;47.408;18.822;2023-11-18T02:18:03;4.02;93.13
70166;SHT30;57541;47.408;18.822;2023-11-18T02:18:38;3.99;93.17
70166;SHT30;57541;47.408;18.822;2023-11-18T02:19:21;4.02;93.20
70166;SHT30;57541;47.408;18.822;2023-11-18T02:19:56;4.03;93.38
70166;SHT30;57541;47.408;18.822;2023-11-18T02:20:29;4.05;93.15
70166;SHT30;57541;47.408;18.822;2023-11-18T02:21:02;3.99;93.20
70166;SHT30;57541;47.408;18.822;2023-11-18T02:21:35;4.05;93.32
70166;SHT30;57541;47.408;18.822;2023-11-18T02:22:09;4.03;93.26
70166;SHT30;57541;47.408;18.822;2023-11-18T02:22:43;3.99;93.33
70166;SHT30;57541;47.408;18.822;2023-11-18T02:23:15;4.03;93.42
70166;SHT30;57541;47.408;18.822;2023-11-18T02:23:48;4.05;93.26
70166;SHT30;57541;47.408;18.822;2023-11-18T02:24:30;3.96;93.40
70166;SHT30;57541;47.408;18.822;2023-11-18T02:25:06;3.96;93.52
70166;SHT30;57541;47.408;18.822;2023-11-18T02:25:45;3.98;93.52
70166;SHT30;57541;47.408;18.822;2023-11-18T02:26:21;4.02;93.55
70166;SHT30;57541;47.408;18.822;2023-11-18T02:26:56;4.02;93.68
70166;SHT30;57541;47.408;18.822;2023-11-18T02:27:28;4.00;93.58
70166;SHT30;57541;47.408;18.822;2023-11-18T02:28:00;4.02;93.59
70166;SHT30;57541;47.408;18.822;2023-11-18T02:28:32;4.05;93.51
70166;SHT30;57541;47.408;18.822;2023-11-18T02:29:04;4.06;93.54
70166;SHT30;57541;47.408;18.822;2023-11-18T02:29:39;4.09;93.34
70166;SHT30;57541;47.408;18.822;2023-11-18T02:30:14;4.12;93.39
70166;SHT30;57541;47.408;18.822;2023-11-18T02:30:57;4.12;93.41
70166;SHT30;57541;47.408;18.822;2023-11-18T02:31:33;4.13;93.38
70166;SHT30;57541;47.408;18.822;2023-11-18T02:32:15;4.12;93.25
70166;SHT30;57541;47.408;18.822;2023-11-18T02:32:59;4.10;93.49
70166;SHT30;57541;47.408;18.822;2023-11-18T02:33:37;4.12;93.42
70166;SHT30;57541;47.408;18.822;2023-11-18T02:34:17;4.12;93.47
70166;SHT30;57541;47.408;18.822;2023-11-18T02:35:14;4.14;93.47
70166;SHT30;57541;47.408;18.822;2023-11-18T02:35:53;4.16;93.54
70166;SHT30;57541;47.408;18.822;2023-11-18T02:36:35;4.14;93.55
70166;SHT30;57541;47.408;18.822;2023-11-18T02:37:08;4.16;93.39
70166;SHT30;57541;47.408;18.822;2023-11-18T02:37:47;4.16;93.45
70166;SHT30;57541;47.408;18.822;2023-11-18T02:38:22;4.12;93.48
70166;SHT30;57541;47.408;18.822;2023-11-18T02:38:58;4.12;93.64
70166;SHT30;57541;47.408;18.822;2023-11-18T02:39:39;4.16;93.53
70166;SHT30;57541;47.408;18.822;2023-11-18T02:40:16;4.17;93.45
70166;SHT30;57541;47.408;18.822;2023-11-18T02:40:52;4.19;93.49
70166;SHT30;57541;47.408;18.822;2023-11-18T02:41:25;4.14;93.61
70166;SHT30;57541;47.408;18.822;2023-11-18T02:42:01;4.17;93.76
70166;SHT30;57541;47.408;18.822;2023-11-18T02:42:35;4.16;93.76
70166;SHT30;57541;47.408;18.822;2023-11-18T02:43:09;4.20;93.72
70166;SHT30;57541;47.408;18.822;2023-11-18T02:43:42;4.14;93.73
70166;SHT30;57541;47.408;18.822;2023-11-18T02:44:17;4.14;93.75
70166;SHT30;57541;47.408;18.822;2023-11-18T02:44:50;4.13;93.90
70166;SHT30;57541;47.408;18.822;2023-11-18T02:45:31;4.14;93.93
70166;SHT30;57541;47.408;18.822;2023-11-18T02:46:04;4.14;93.87
70166;SHT30;57541;47.408;18.822;2023-11-18T02:46:38;4.17;93.83
70166;SHT30;57541;47.408;18.822;2023-11-18T02:47:11;4.14;93.84
70166;SHT30;57541;47.408;18.822;2023-11-18T02:47:44;4.13;93.82
70166;SHT30;57541;47.408;18.822;2023-11-18T02:48:17;4.10;93.91
70166;SHT30;57541;47.408;18.822;2023-11-18T02:48:49;4.13;94.01
70166;SHT30;57541;47.408;18.822;2023-11-18T02:49:25;4.09;94.08
70166;SHT30;57541;47.408;18.822;2023-11-18T02:49:57;4.10;94.09
70166;SHT30;57541;47.408;18.822;2023-11-18T02:50:37;4.13;93.99
70166;SHT30;57541;47.408;18.822;2023-11-18T02:51:09;4.10;94.00
70166;SHT30;57541;47.408;18.822;2023-11-18T02:51:43;4.09;94.18
70166;SHT30;57541;47.408;18.822;2023-11-18T02:52:16;4.12;94.17
70166;SHT30;57541;47.408;18.822;2023-11-18T02:52:48;4.07;94.54
70166;SHT30;57541;47.408;18.822;2023-11-18T02:53:20;4.07;94.42
70166;SHT30;57541;47.408;18.822;2023-11-18T02:53:52;4.05;94.43
70166;SHT30;57541;47.408;18.822;2023-11-18T02:54:24;4.10;94.50
70166;SHT30;57541;47.408;18.822;2023-11-18T02:54:57;4.07;94.44
70166;SHT30;57541;47.408;18.822;2023-11-18T02:55:29;4.09;94.33
70166;SHT30;57541;47.408;18.822;2023-11-18T02:56:01;4.12;94.27
70166;SHT30;57541;47.408;18.822;2023-11-18T02:56:37;4.09;94.35
70166;SHT30;57541;47.408;18.822;2023-11-18T02:57:08;4.09;94.50
70166;SHT30;57541;47.408;18.822;2023-11-18T02:57:40;4.12;94.45
70166;SHT30;57541;47.408;18.822;2023-11-18T02:58:12;4.12;94.47
70166;SHT30;57541;47.408;18.822;2023-11-18T02:58:44;4.12;94.57
70166;SHT30;57541;47.408;18.822;2023-11-18T02:59:16;4.10;94.52
70166;SHT30;57541;47.408;18.822;2023-11-18T02:59:48;4.09;94.50
70166;SHT30;57541;47.408;18.822;2023-11-18T03:00:21;4.13;94.52
70166;SHT30;57541;47.408;18.822;2023-11-18T03:00:55;4.09;94.62
70166;SHT30;57541;47.408;18.822;2023-11-18T03:01:27;4.10;94.64
70166;SHT30;57541;47.408;18.822;2023-11-18T03:01:59;4.03;94.70
70166;SHT30;57541;47.408;18.822;2023-11-18T03:02:33;4.00;94.93
70166;SHT30;57541;47.408;18.822;2023-11-18T03:03:05;4.06;94.83
70166;SHT30;57541;47.408;18.822;2023-11-18T03:03:37;4.09;94.67
70166;SHT30;57541;47.408;18.822;2023-11-18T03:04:08;4.10;94.63
70166;SHT30;57541;47.408;18.822;2023-11-18T03:04:41;4.06;94.68
70166;SHT30;57541;47.408;18.822;2023-11-18T03:05:16;4.05;94.65
70166;SHT30;57541;47.408;18.822;2023-11-18T03:05:48;4.06;94.61
70166;SHT30;57541;47.408;18.822;2023-11-18T03:06:21;4.02;94.75
70166;SHT30;57541;47.408;18.822;2023-11-18T03:06:53;4.06;94.79
70166;SHT30;57541;47.408;18.822;2023-11-18T03:07:25;4.00;94.93
70166;SHT30;57541;47.408;18.822;2023-11-18T03:07:58;3.99;94.97
70166;SHT30;57541;47.408;18.822;2023-11-18T03:08:30;4.00;94.94
70166;SHT30;57541;47.408;18.822;2023-11-18T03:09:02;4.00;94.94
70166;SHT30;57541;47.408;18.822;2023-11-18T03:09:38;4.02;95.08
70166;SHT30;57541;47.408;18.822;2023-11-18T03:10:11;3.99;94.95
70166;SHT30;57541;47.408;18.822;2023-11-18T03:10:52;4.05;94.93
70166;SHT30;57541;47.408;18.822;2023-11-18T03:11:24;4.03;94.84
70166;SHT30;57541;47.408;18.822;2023-11-18T03:11:56;4.02;94.82
70166;SHT30;57541;47.408;18.822;2023-11-18T03:12:31;4.00;94.95
70166;SHT30;57541;47.408;18.822;2023-11-18T03:13:03;4.00;95.00
70166;SHT30;57541;47.408;18.822;2023-11-18T03:13:35;3.98;95.30
70166;SHT30;57541;47.408;18.822;2023-11-18T03:14:08;3.96;95.35
70166;SHT30;57541;47.408;18.822;2023-11-18T03:14:41;3.95;95.44
70166;SHT30;57541;47.408;18.822;2023-11-18T03:15:14;3.96;95.38
70166;SHT30;57541;47.408;18.822;2023-11-18T03:15:48;3.95;95.34
70166;SHT30;57541;47.408;18.822;2023-11-18T03:16:20;3.98;95.33
70166;SHT30;57541;47.408;18.822;2023-11-18T03:16:52;4.02;95.13
70166;SHT30;57541;47.408;18.822;2023-11-18T03:17:27;3.98;95.10
70166;SHT30;57541;47.408;18.822;2023-11-18T03:18:00;4.03;94.94
70166;SHT30;57541;47.408;18.822;2023-11-18T03:18:31;4.00;95.04
70166;SHT30;57541;47.408;18.822;2023-11-18T03:19:03;4.02;94.86
70166;SHT30;57541;47.408;18.822;2023-11-18T03:19:36;4.05;94.97
70166;SHT30;57541;47.408;18.822;2023-11-18T03:20:10;3.96;95.20
70166;SHT30;57541;47.408;18.822;2023-11-18T03:20:43;3.99;95.13
70166;SHT30;57541;47.408;18.822;2023-11-18T03:21:15;3.92;95.32
70166;SHT30;57541;47.408;18.822;2023-11-18T03:21:53;3.95;95.35
70166;SHT30;57541;47.408;18.822;2023-11-18T03:22:24;3.93;95.29
70166;SHT30;57541;47.408;18.822;2023-11-18T03:22:59;3.95;95.31
70166;SHT30;57541;47.408;18.822;2023-11-18T03:23:32;3.95;95.30
70166;SHT30;57541;47.408;18.822;2023-11-18T03:24:04;3.99;95.33
70166;SHT30;57541;47.408;18.822;2023-11-18T03:24:36;3.98;95.44
70166;SHT30;57541;47.408;18.822;2023-11-18T03:25:08;3.96;95.37
70166;SHT30;57541;47.408;18.822;2023-11-18T03:25:40;3.98;95.42
70166;SHT30;57541;47.408;18.822;2023-11-18T03:26:12;3.96;95.25
70166;SHT30;57541;47.408;18.822;2023-11-18T03:26:44;3.92;95.48
70166;SHT30;57541;47.408;18.822;2023-11-18T03:27:15;3.95;95.54
70166;SHT30;57541;47.408;18.822;2023-11-18T03:27:47;3.91;95.81
70166;SHT30;57541;47.408;18.822;2023-11-18T03:28:19;3.95;95.98
70166;SHT30;57541;47.408;18.822;2023-11-18T03:28:51;3.92;95.85
70166;SHT30;57541;47.408;18.822;2023-11-18T03:29:23;3.91;95.70
70166;SHT30;57541;47.408;18.822;2023-11-18T03:29:54;3.95;95.54